Time;durP1;ratioP1;P1;durP2;ratioP2;P2;SDS_P1;SDS_P2;PMS_P1;PMS_P2;Temp;Humidity;BMP_temperature;BMP_pressure;BME280_temperature;BME280_humidity;BME280_pressure;Samples;Min_cycle;Max_cycle;Signal;HPM_P1;HPM_P2
2023/06/03 00:04:41;;;;;;;9.67;4.20;;;;;;;16.23;39.96;99908.31;10275910;28;20246;-36
2023/06/03 00:09:43;;;;;;;6.40;3.80;;;;;;;16.37;39.98;99901.78;10275953;28;20245;-35
2023/06/03 00:14:45;;;;;;;8.83;4.17;;;;;;;15.92;41.04;99914.53;10281472;28;20257;-36
2023/06/03 00:19:48;;;;;;;8.83;4.17;;;;;;;16.79;40.22;99893.09;10287793;28;20242;-36
2023/06/03 00:24:50;;;;;;;8.70;4.33;;;;;;;16.86;40.16;99891.16;10281583;28;20296;-36
2023/06/03 00:29:52;;;;;;;7.00;3.90;;;;;;;16.50;40.27;99914.34;10283121;28;21187;-36
2023/06/03 00:34:53;;;;;;;8.00;3.90;;;;;;;15.46;41.58;99914.50;10279155;28;20729;-36
2023/06/03 00:39:55;;;;;;;8.17;3.90;;;;;;;15.64;41.43;99918.38;10287399;28;20777;-35
2023/06/03 00:44:57;;;;;;;7.97;3.60;;;;;;;16.02;40.97;99902.19;10280549;28;20588;-37
2023/06/03 00:49:59;;;;;;;7.27;3.73;;;;;;;16.06;41.31;99918.78;10283179;28;20238;-36
2023/06/03 00:55:02;;;;;;;6.00;3.37;;;;;;;15.64;41.19;99915.69;10284925;28;20615;-36
2023/06/03 01:00:05;;;;;;;7.60;3.77;;;;;;;15.29;42.65;99902.56;10281859;28;20242;-36
2023/06/03 01:05:07;;;;;;;6.97;4.30;;;;;;;15.48;42.33;99915.09;10280595;28;20292;-37
2023/06/03 01:10:24;;;;;;;5.43;3.60;;;;;;;15.47;42.52;99900.00;10280651;28;20329;-36
2023/06/03 01:15:28;;;;;;;8.77;3.60;;;;;;;15.44;42.30;99908.50;10284105;28;20288;-36
2023/06/03 01:20:32;;;;;;;7.00;4.03;;;;;;;15.52;42.08;99912.81;10281400;28;20349;-36
2023/06/03 01:25:35;;;;;;;8.17;3.77;;;;;;;14.28;43.38;99871.41;10282490;28;20238;-38
2023/06/03 01:30:36;;;;;;;11.00;4.17;;;;;;;16.19;41.51;99907.06;10281987;28;20238;-37
2023/06/03 01:35:40;;;;;;;7.17;3.97;;;;;;;15.85;41.43;99920.78;10278104;28;20656;-37
2023/06/03 01:40:43;;;;;;;7.93;3.90;;;;;;;15.26;42.34;99936.13;10285579;28;20328;-37
2023/06/03 01:45:45;;;;;;;8.87;4.40;;;;;;;15.25;42.33;99929.13;10281878;28;20238;-36
2023/06/03 01:50:47;;;;;;;11.00;4.20;;;;;;;14.58;43.85;99937.25;10274905;28;20245;-37
2023/06/03 01:55:49;;;;;;;6.93;3.70;;;;;;;14.69;42.60;99903.47;10282330;28;20245;-37
2023/06/03 02:00:51;;;;;;;8.70;4.13;;;;;;;14.11;44.74;99914.03;10279496;28;20288;-37
2023/06/03 02:05:52;;;;;;;9.33;4.13;;;;;;;14.98;43.73;99925.63;10281488;28;20241;-37
2023/06/03 02:10:54;;;;;;;7.63;3.90;;;;;;;13.88;45.35;99919.75;10281459;28;20664;-36
2023/06/03 02:15:56;;;;;;;9.53;4.20;;;;;;;13.31;46.18;99881.50;10280357;28;20257;-36
2023/06/03 02:20:58;;;;;;;8.70;4.47;;;;;;;13.81;45.72;99901.72;10282349;28;20298;-36
2023/06/03 02:26:01;;;;;;;6.87;4.40;;;;;;;14.10;45.67;99917.75;10280425;28;20583;-36
2023/06/03 02:31:03;;;;;;;6.17;4.53;;;;;;;12.83;47.62;99869.63;10278209;28;20241;-36
2023/06/03 02:36:06;;;;;;;9.70;4.83;;;;;;;12.71;47.39;99874.72;10283977;28;20225;-36
2023/06/03 02:41:08;;;;;;;7.50;4.37;;;;;;;13.39;47.05;99908.19;10280862;28;20238;-36
2023/06/03 02:46:10;;;;;;;6.67;4.00;;;;;;;13.34;46.33;99916.84;10280748;28;20230;-36
2023/06/03 02:51:11;;;;;;;7.20;5.00;;;;;;;13.13;47.62;99907.00;10280540;28;20226;-36
2023/06/03 02:56:13;;;;;;;7.60;4.00;;;;;;;13.42;47.60;99911.31;10277802;28;20731;-36
2023/06/03 03:01:15;;;;;;;7.10;4.17;;;;;;;12.83;48.19;99915.28;10277464;28;20330;-36
2023/06/03 03:06:19;;;;;;;7.53;4.37;;;;;;;13.64;46.47;99946.97;10277238;28;20741;-36
2023/06/03 03:11:21;;;;;;;8.67;4.60;;;;;;;13.46;45.62;99947.53;10279133;28;20344;-36
2023/06/03 03:16:23;;;;;;;9.90;5.23;;;;;;;13.50;46.21;99955.16;10278942;28;20924;-36
2023/06/03 03:21:25;;;;;;;6.77;3.90;;;;;;;14.01;46.46;99952.88;10278435;28;20242;-36
2023/06/03 03:26:28;;;;;;;6.60;4.20;;;;;;;13.36;47.37;99968.56;10276534;28;20996;-36
2023/06/03 03:31:30;;;;;;;10.60;4.33;;;;;;;13.05;47.98;99948.28;10278389;28;20933;-36
2023/06/03 03:36:36;;;;;;;7.77;4.53;;;;;;;13.44;47.12;99959.50;10281329;28;20247;-36
2023/06/03 03:41:42;;;;;;;9.63;4.50;;;;;;;13.00;48.21;99963.34;10282158;28;20284;-36
2023/06/03 03:47:01;;;;;;;8.87;4.47;;;;;;;12.52;48.04;99942.53;10280315;28;20242;-36
2023/06/03 03:52:05;;;;;;;14.07;4.03;;;;;;;11.62;49.84;99899.06;10287375;28;20308;-36
2023/06/03 03:57:12;;;;;;;4.00;3.60;;;;;;;13.33;47.07;99965.44;10286879;28;20233;-36
2023/06/03 04:02:14;;;;;;;5.77;3.83;;;;;;;12.28;48.40;99946.41;10285896;28;20238;-36
2023/06/03 04:07:18;;;;;;;8.33;4.17;;;;;;;13.24;46.84;99988.91;10290271;28;20269;-36
2023/06/03 04:12:32;;;;;;;10.43;4.27;;;;;;;14.03;45.51;100007.31;10284093;28;20230;-36
2023/06/03 04:17:40;;;;;;;6.23;4.07;;;;;;;13.29;46.91;100014.22;10286811;28;20355;-46
2023/06/03 04:22:42;;;;;;;8.57;4.23;;;;;;;13.55;46.80;100017.22;10288860;28;20304;-36
2023/06/03 04:27:44;;;;;;;10.90;4.07;;;;;;;12.61;48.39;100005.78;10286437;28;20234;-36
2023/06/03 04:32:47;;;;;;;9.23;4.77;;;;;;;13.27;47.33;100018.91;10282141;28;20233;-36
2023/06/03 04:37:49;;;;;;;7.93;4.57;;;;;;;14.26;45.74;100041.16;10291643;28;20237;-36
2023/06/03 04:42:51;;;;;;;8.13;3.97;;;;;;;13.66;46.51;100041.69;10288509;28;20258;-37
2023/06/03 04:47:58;;;;;;;6.33;3.80;;;;;;;13.33;47.03;100036.16;10286593;28;20227;-36
2023/06/03 04:53:00;;;;;;;7.10;3.70;;;;;;;12.71;48.29;100013.53;10290125;28;20234;-36
2023/06/03 04:58:02;;;;;;;6.20;3.53;;;;;;;14.24;46.63;100035.16;10291378;28;20325;-36
2023/06/03 05:03:08;;;;;;;5.20;3.80;;;;;;;13.41;46.91;100035.16;10283108;28;20256;-36
2023/06/03 05:08:11;;;;;;;9.60;4.27;;;;;;;14.77;46.31;100053.28;10288827;28;20687;-36
2023/06/03 05:13:13;;;;;;;7.23;3.27;;;;;;;14.78;45.97;100038.78;10289343;28;20238;-36
2023/06/03 05:18:15;;;;;;;8.37;3.97;;;;;;;14.13;46.56;100057.28;10285001;28;20445;-36
2023/06/03 05:23:17;;;;;;;8.23;4.13;;;;;;;14.25;46.68;100052.97;10281625;28;20260;-36
2023/06/03 05:28:19;;;;;;;8.67;3.97;;;;;;;15.64;45.18;100032.53;10288207;28;20226;-36
2023/06/03 05:33:28;;;;;;;8.50;4.13;;;;;;;14.25;46.67;100033.31;10289269;28;20778;-36
2023/06/03 05:38:30;;;;;;;8.20;3.60;;;;;;;13.94;47.02;100046.19;10284243;28;20261;-37
2023/06/03 05:43:34;;;;;;;9.33;4.37;;;;;;;14.09;46.99;100045.25;10282997;28;20261;-37
2023/06/03 05:48:36;;;;;;;9.30;4.10;;;;;;;14.21;46.49;100044.47;10280375;28;20249;-37
2023/06/03 05:53:43;;;;;;;7.27;3.90;;;;;;;15.35;45.73;100030.28;10283438;28;20253;-37
2023/06/03 05:58:45;;;;;;;7.80;4.33;;;;;;;15.82;45.01;100026.44;10277879;28;20237;-36
2023/06/03 06:03:47;;;;;;;11.17;4.40;;;;;;;16.70;44.00;100016.84;10287748;28;20356;-37
2023/06/03 06:08:49;;;;;;;6.70;3.93;;;;;;;15.56;45.30;100031.94;10281883;28;20321;-36
2023/06/03 06:13:51;;;;;;;6.70;4.17;;;;;;;16.83;44.50;100004.28;10288989;28;20320;-37
2023/06/03 06:18:53;;;;;;;6.60;3.50;;;;;;;16.55;44.20;99984.75;10284529;28;20268;-37
2023/06/03 06:23:55;;;;;;;7.83;3.90;;;;;;;15.74;44.89;100021.28;10284771;28;20249;-36
2023/06/03 06:28:57;;;;;;;8.83;4.40;;;;;;;16.25;44.35;100022.31;10286124;28;20242;-36
2023/06/03 06:34:00;;;;;;;8.57;3.63;;;;;;;17.12;44.11;99992.81;10282938;28;20253;-36
2023/06/03 06:39:01;;;;;;;5.97;3.53;;;;;;;15.88;44.43;100030.16;10286115;28;20304;-36
2023/06/03 06:44:04;;;;;;;6.43;3.50;;;;;;;16.90;44.17;99978.81;10281595;28;20237;-37
2023/06/03 06:49:09;;;;;;;6.80;4.00;;;;;;;17.94;42.57;99997.09;10282738;28;20262;-36
2023/06/03 06:54:12;;;;;;;6.93;3.60;;;;;;;17.38;43.09;99965.69;10285852;28;20301;-36
2023/06/03 06:59:14;;;;;;;7.43;3.97;;;;;;;17.69;43.09;99979.09;10281645;28;20564;-36
2023/06/03 07:04:16;;;;;;;8.90;4.00;;;;;;;17.99;42.19;99951.22;10273346;28;20261;-37
2023/06/03 07:09:18;;;;;;;7.10;4.17;;;;;;;15.81;44.08;100018.56;10283185;28;20320;-37
2023/06/03 07:14:20;;;;;;;10.03;4.03;;;;;;;17.20;43.30;99958.41;10274245;28;20234;-36
2023/06/03 07:19:22;;;;;;;7.73;3.97;;;;;;;17.26;43.00;99974.56;10280184;28;20233;-36
2023/06/03 07:24:24;;;;;;;9.63;4.17;;;;;;;16.37;44.03;100025.19;10287994;28;20241;-36
2023/06/03 07:29:34;;;;;;;7.43;3.70;;;;;;;16.70;43.66;99973.63;10334856;23;20295;-41
2023/06/03 07:34:36;;;;;;;6.90;4.03;;;;;;;17.17;42.73;99975.91;10314865;28;20248;-40
2023/06/03 07:39:38;;;;;;;6.83;3.80;;;;;;;17.71;42.61;99955.34;10299575;28;20233;-41
2023/06/03 07:44:45;;;;;;;10.50;4.00;;;;;;;17.26;42.45;99998.06;10281196;28;20244;-42
2023/06/03 07:49:48;;;;;;;7.53;4.03;;;;;;;18.32;41.66;99933.69;10284864;28;20672;-41
2023/06/03 07:54:50;;;;;;;5.83;4.20;;;;;;;18.24;41.39;99936.72;10283522;28;20794;-42
2023/06/03 07:59:56;;;;;;;7.70;3.80;;;;;;;18.18;41.38;99941.16;10286968;28;20692;-40
2023/06/03 08:05:00;;;;;;;7.97;4.00;;;;;;;19.58;40.46;99927.88;10276771;28;20242;-41
2023/06/03 08:10:03;;;;;;;6.23;3.90;;;;;;;18.14;41.79;99971.66;10286132;28;20624;-39
2023/06/03 08:15:06;;;;;;;7.60;3.90;;;;;;;19.29;40.31;99902.56;10280027;28;20226;-40
2023/06/03 08:20:08;;;;;;;7.63;4.07;;;;;;;18.19;41.33;99982.63;10284381;28;20301;-39
2023/06/03 08:25:12;;;;;;;7.07;4.30;;;;;;;18.81;40.53;99918.06;10290758;28;20256;-41
2023/06/03 08:30:15;;;;;;;7.27;4.03;;;;;;;18.20;41.50;99989.66;10276493;28;20924;-41
2023/06/03 08:35:20;;;;;;;9.93;4.20;;;;;;;18.73;41.11;99909.47;10278734;28;20781;-42
2023/06/03 08:40:25;;;;;;;7.83;4.17;;;;;;;19.91;39.93;99907.31;10280708;28;20226;-42
2023/06/03 08:45:35;;;;;;;104.90;14.20;;;;;;;19.57;39.91;99909.94;10279638;28;20230;-41
2023/06/03 08:50:37;;;;;;;8.17;4.00;;;;;;;20.14;39.39;99883.81;10281265;28;20237;-40
2023/06/03 08:55:40;;;;;;;6.80;4.38;;;;;;;20.18;38.87;99871.44;10282038;28;20624;-41
2023/06/03 09:00:43;;;;;;;6.80;3.72;;;;;;;20.17;39.58;99869.75;10275693;28;20241;-43
2023/06/03 09:05:46;;;;;;;9.57;4.30;;;;;;;20.12;39.55;99867.75;10273177;28;20234;-39
2023/06/03 09:10:48;;;;;;;9.00;4.40;;;;;;;20.05;39.60;99858.13;10277183;28;20386;-39
2023/06/03 09:15:51;;;;;;;6.80;4.00;;;;;;;21.10;38.75;99860.25;10277211;28;20230;-42
2023/06/03 09:20:53;;;;;;;9.77;3.55;;;;;;;20.45;38.82;99849.84;10273856;28;20737;-41
2023/06/03 09:25:55;;;;;;;8.30;4.20;;;;;;;21.52;38.19;99835.97;10281789;28;20249;-42
2023/06/03 09:30:57;;;;;;;7.85;4.20;;;;;;;20.61;38.63;99834.56;10275795;28;20261;-42
2023/06/03 09:36:09;;;;;;;7.75;4.18;;;;;;;20.62;38.71;99863.41;10280000;28;20343;-43
2023/06/03 09:41:19;;;;;;;10.05;4.28;;;;;;;21.28;38.91;99838.16;10286856;28;20234;-40
2023/06/03 09:46:21;;;;;;;6.53;4.38;;;;;;;21.05;38.62;99839.25;10285027;28;20230;-41
2023/06/03 09:51:40;;;;;;;6.65;4.28;;;;;;;21.70;38.34;99815.75;10278520;28;20324;-42
2023/06/03 09:56:45;;;;;;;8.45;4.43;;;;;;;22.23;37.53;99796.03;10288763;28;20222;-41
2023/06/03 10:01:49;;;;;;;10.15;4.32;;;;;;;20.49;38.74;99869.19;10280141;28;20261;-42
2023/06/03 10:07:09;;;;;;;6.82;3.85;;;;;;;21.86;37.89;99796.81;10280882;28;20225;-41
2023/06/03 10:12:13;;;;;;;6.13;4.00;;;;;;;21.56;38.20;99752.75;10280927;28;20222;-42
2023/06/03 10:17:17;;;;;;;6.35;3.78;;;;;;;22.94;37.13;99745.69;10274861;28;20234;-41
2023/06/03 10:22:19;;;;;;;8.23;4.05;;;;;;;23.52;36.88;99742.81;10283738;28;20230;-43
2023/06/03 10:27:21;;;;;;;7.97;4.13;;;;;;;23.26;36.56;99723.66;10275926;28;20700;-42
2023/06/03 10:32:25;;;;;;;7.45;4.32;;;;;;;21.86;37.89;99802.25;10279127;28;20277;-43
2023/06/03 10:37:29;;;;;;;9.93;4.82;;;;;;;22.37;37.78;99748.16;10283829;28;20238;-42
2023/06/03 10:42:32;;;;;;;9.25;4.85;;;;;;;21.78;38.14;99766.25;10268265;28;20610;-42
2023/06/03 10:47:39;;;;;;;6.18;4.40;;;;;;;22.70;37.51;99716.16;10269015;28;20233;-43
2023/06/03 10:52:51;;;;;;;6.75;3.80;;;;;;;23.19;36.45;99674.00;10271409;28;20889;-41
2023/06/03 10:58:15;;;;;;;7.13;4.15;;;;;;;22.05;37.40;99737.31;10283424;28;20248;-41
2023/06/03 11:06:23;;;;;;;6.97;4.90;;;;;;;21.31;40.13;99768.81;10367296;28;21679;-69
2023/06/03 11:11:52;;;;;;;5.32;3.80;;;;;;;21.61;39.12;99751.97;10262009;28;20328;-66
2023/06/03 11:16:57;;;;;;;7.47;3.90;;;;;;;21.17;39.40;99754.75;10287292;28;20719;-67
2023/06/03 11:22:08;;;;;;;7.93;4.50;;;;;;;22.20;38.60;99691.13;10309134;28;20236;-69
2023/06/03 11:27:10;;;;;;;7.90;4.18;;;;;;;22.58;38.33;99729.19;10310306;28;20237;-65
2023/06/03 11:32:25;;;;;;;13.50;4.65;;;;;;;22.40;38.52;99705.91;10310183;28;20774;-66
2023/06/03 11:37:40;;;;;;;7.95;4.13;;;;;;;21.07;39.40;99792.75;10302617;28;20229;-64
2023/06/03 11:42:48;;;;;;;9.63;5.07;;;;;;;21.62;38.87;99767.22;10309264;28;20240;-68
2023/06/03 11:48:10;;;;;;;7.18;4.70;;;;;;;22.29;38.23;99722.22;10304713;28;20234;-67
2023/06/03 11:53:28;;;;;;;7.80;4.47;;;;;;;22.05;38.18;99720.97;10311120;28;20328;-65
2023/06/03 11:58:30;;;;;;;7.32;4.30;;;;;;;22.30;38.03;99709.41;10299599;28;20311;-65
2023/06/03 12:03:34;;;;;;;6.05;4.57;;;;;;;22.14;38.08;99695.69;10307047;28;20237;-68
2023/06/03 12:08:45;;;;;;;9.02;4.88;;;;;;;22.77;38.01;99659.44;10308616;28;20616;-68
2023/06/03 12:13:48;;;;;;;9.65;4.22;;;;;;;23.38;37.13;99619.66;10300514;28;20321;-68
2023/06/03 12:18:49;;;;;;;7.45;4.50;;;;;;;22.77;37.77;99669.53;10278552;28;20262;-67
2023/06/03 12:23:51;;;;;;;8.90;5.10;;;;;;;22.75;37.38;99667.06;10280379;28;20563;-68
2023/06/03 12:29:05;;;;;;;77.32;13.50;;;;;;;22.95;37.95;99666.28;10276771;28;20244;-68
2023/06/03 12:34:07;;;;;;;9.70;3.88;;;;;;;23.85;36.85;99588.44;10276688;28;20264;-69
2023/06/03 12:39:09;;;;;;;9.25;3.85;;;;;;;23.57;37.87;99615.28;10281401;28;20214;-67
2023/06/03 12:44:10;;;;;;;9.75;4.30;;;;;;;23.87;37.53;99629.16;10275618;28;20341;-67
2023/06/03 12:49:14;;;;;;;6.82;4.10;;;;;;;23.21;37.95;99636.31;10278864;28;20264;-67
2023/06/03 12:54:16;;;;;;;7.45;4.07;;;;;;;22.86;37.47;99682.38;10274099;28;20280;-67
2023/06/03 12:59:18;;;;;;;6.28;4.00;;;;;;;23.49;37.45;99620.47;10278929;28;20305;-68
2023/06/03 13:04:19;;;;;;;5.30;3.70;;;;;;;23.72;37.12;99587.16;10270631;28;20245;-67
2023/06/03 13:09:21;;;;;;;8.18;4.13;;;;;;;24.04;37.00;99582.38;10279296;28;20329;-68
2023/06/03 13:14:23;;;;;;;6.30;4.00;;;;;;;23.26;37.24;99652.69;10267237;28;20313;-67
2023/06/03 13:19:25;;;;;;;6.30;3.75;;;;;;;24.08;36.79;99587.00;10272647;28;20242;-68
2023/06/03 13:24:27;;;;;;;6.75;3.90;;;;;;;23.81;36.09;99581.94;10275894;28;20898;-69
2023/06/03 13:29:29;;;;;;;9.85;3.80;;;;;;;24.04;36.17;99604.22;10277862;28;20251;-69
2023/06/03 13:34:34;;;;;;;6.57;4.50;;;;;;;24.28;36.39;99596.25;10276454;28;20237;-68
2023/06/03 13:39:37;;;;;;;5.13;4.18;;;;;;;24.42;35.88;99586.31;10278433;28;20269;-70
2023/06/03 13:44:39;;;;;;;6.30;4.20;;;;;;;24.62;35.82;99590.84;10257908;28;20317;-70
2023/06/03 13:49:41;;;;;;;8.50;4.60;;;;;;;23.21;36.25;99628.13;10276739;28;20245;-67
2023/06/03 13:54:43;;;;;;;7.85;4.10;;;;;;;24.79;35.69;99565.84;10274173;28;20268;-70
2023/06/03 13:59:45;;;;;;;6.97;4.18;;;;;;;24.59;35.25;99585.13;10274859;28;20316;-69
2023/06/03 14:04:48;;;;;;;6.65;4.30;;;;;;;24.19;35.81;99574.13;10276478;28;20248;-68
2023/06/03 14:09:49;;;;;;;7.53;4.10;;;;;;;23.29;36.05;99646.69;10275808;28;20238;-68
2023/06/03 14:14:52;;;;;;;8.00;4.35;;;;;;;24.71;34.96;99539.94;10272732;28;20515;-67
2023/06/03 14:19:53;;;;;;;5.60;4.13;;;;;;;24.35;35.92;99575.69;10279247;28;20335;-69
2023/06/03 14:24:55;;;;;;;6.72;4.25;;;;;;;25.28;35.01;99523.84;10275224;28;20234;-68
2023/06/03 14:29:57;;;;;;;6.30;4.13;;;;;;;24.61;35.03;99537.22;10276818;28;20237;-69
2023/06/03 14:35:07;;;;;;;5.78;4.50;;;;;;;24.59;35.62;99553.13;10265949;28;20230;-68
2023/06/03 14:40:09;;;;;;;7.32;4.00;;;;;;;24.52;35.61;99561.63;10275752;28;20608;-69
2023/06/03 14:45:11;;;;;;;6.18;4.32;;;;;;;24.99;35.21;99544.91;10275102;28;20726;-74
2023/06/03 14:50:13;;;;;;;6.85;4.05;;;;;;;24.71;35.25;99567.31;10276942;28;20369;-67
2023/06/03 14:55:15;;;;;;;8.38;3.80;;;;;;;25.49;34.84;99518.16;10272788;28;20785;-67
2023/06/03 15:00:16;;;;;;;7.50;4.53;;;;;;;25.42;34.69;99506.72;10272270;28;20324;-67
2023/06/03 15:05:19;;;;;;;6.45;3.83;;;;;;;25.45;35.17;99471.34;10268242;28;20238;-67
2023/06/03 15:10:21;;;;;;;6.30;4.40;;;;;;;22.96;36.98;99599.75;10270554;28;20246;-68
2023/06/03 15:15:23;;;;;;;7.63;4.47;;;;;;;24.94;35.17;99520.31;10269616;28;20253;-70
2023/06/03 15:20:25;;;;;;;7.40;4.28;;;;;;;24.52;35.55;99555.34;10271137;28;20249;-67
2023/06/03 15:25:27;;;;;;;11.25;5.03;;;;;;;23.19;36.04;99565.63;10272329;28;20321;-67
2023/06/03 15:30:29;;;;;;;5.82;3.88;;;;;;;24.79;35.45;99526.75;10267134;28;20241;-68
2023/06/03 15:35:30;;;;;;;9.82;4.20;;;;;;;24.58;34.85;99495.97;10272577;28;20308;-67
2023/06/03 15:40:36;;;;;;;6.65;3.90;;;;;;;24.50;35.17;99506.41;10272751;28;20249;-71
2023/06/03 15:45:38;;;;;;;8.82;4.40;;;;;;;24.00;34.87;99541.13;10273561;28;20269;-70
2023/06/03 15:50:40;;;;;;;8.55;4.18;;;;;;;24.04;35.11;99553.16;10270872;28;20314;-67
2023/06/03 15:55:42;;;;;;;7.70;4.63;;;;;;;23.87;35.05;99566.31;10278734;28;20258;-69
2023/06/03 16:00:43;;;;;;;5.35;3.83;;;;;;;24.13;35.03;99556.09;10279286;28;20262;-68
2023/06/03 16:05:45;;;;;;;6.65;4.07;;;;;;;24.51;34.23;99515.44;10281624;28;20338;-67
2023/06/03 16:10:47;;;;;;;6.65;4.20;;;;;;;25.05;33.68;99519.09;10276005;28;20329;-70
2023/06/03 16:15:49;;;;;;;5.95;4.00;;;;;;;25.28;33.09;99487.44;10280902;28;20665;-69
2023/06/03 16:20:51;;;;;;;6.85;4.22;;;;;;;24.43;33.79;99540.63;10278523;28;20578;-68
2023/06/03 16:25:56;;;;;;;5.47;4.05;;;;;;;24.33;34.06;99512.28;10275951;28;20246;-67
2023/06/03 16:30:58;;;;;;;5.32;3.40;;;;;;;24.70;34.12;99521.88;10280327;28;20697;-69
2023/06/03 16:36:00;;;;;;;7.93;3.67;;;;;;;25.06;33.41;99520.75;10280688;28;20263;-68
2023/06/03 16:41:01;;;;;;;4.93;3.58;;;;;;;25.12;33.11;99478.56;10279739;28;20718;-68
2023/06/03 16:46:03;;;;;;;6.38;3.70;;;;;;;24.92;32.95;99512.41;10278430;28;20596;-69
2023/06/03 16:51:05;;;;;;;7.95;3.28;;;;;;;25.16;32.94;99519.84;10276555;28;20911;-69
2023/06/03 16:56:08;;;;;;;5.88;3.80;;;;;;;25.07;32.95;99538.81;10278559;28;20244;-71
2023/06/03 17:01:10;;;;;;;5.88;4.10;;;;;;;25.15;32.62;99534.63;10271623;28;20230;-71
2023/06/03 17:06:12;;;;;;;5.75;3.80;;;;;;;24.80;32.96;99563.94;10277075;28;20234;-71
2023/06/03 17:11:14;;;;;;;4.75;3.78;;;;;;;25.32;32.13;99526.84;10275820;28;20678;-69
2023/06/03 17:16:15;;;;;;;6.90;3.83;;;;;;;24.78;32.16;99534.16;10274792;28;20253;-69
2023/06/03 17:21:17;;;;;;;9.20;3.78;;;;;;;23.16;33.13;99577.13;10276864;28;20270;-67
2023/06/03 17:26:21;;;;;;;4.32;3.28;;;;;;;24.34;32.55;99589.63;10275370;28;21148;-67
2023/06/03 17:31:23;;;;;;;8.82;3.70;;;;;;;25.26;32.09;99533.47;10275439;28;20321;-67
2023/06/03 17:36:25;;;;;;;5.82;4.03;;;;;;;24.24;32.56;99584.22;10274626;28;20288;-70
2023/06/03 17:41:27;;;;;;;5.40;3.53;;;;;;;24.54;32.84;99558.63;10272763;28;20289;-71
2023/06/03 17:46:28;;;;;;;8.00;3.58;;;;;;;22.97;33.49;99606.00;10277561;28;20320;-67
2023/06/03 17:51:30;;;;;;;6.00;3.70;;;;;;;23.31;33.60;99628.13;10278969;28;20238;-70
2023/06/03 17:56:34;;;;;;;5.90;3.92;;;;;;;23.21;33.58;99631.69;10275374;28;20336;-68
2023/06/03 18:01:36;;;;;;;5.70;3.92;;;;;;;22.59;33.99;99621.75;10272962;28;20817;-72
2023/06/03 18:06:38;;;;;;;10.70;3.90;;;;;;;23.04;33.97;99631.09;10273098;28;20269;-66
2023/06/03 18:11:40;;;;;;;9.02;3.67;;;;;;;22.69;33.75;99624.53;10272289;28;20240;-67
2023/06/03 18:16:42;;;;;;;5.53;3.75;;;;;;;23.62;33.24;99623.50;10274866;28;20321;-70
2023/06/03 18:21:45;;;;;;;8.52;3.63;;;;;;;23.35;33.48;99648.34;10273784;28;20261;-71
2023/06/03 18:26:47;;;;;;;8.45;4.25;;;;;;;22.58;34.39;99659.13;10272185;28;20332;-69
2023/06/03 18:31:49;;;;;;;5.20;3.83;;;;;;;23.02;33.63;99625.91;10270007;28;20699;-69
2023/06/03 18:36:50;;;;;;;6.82;4.38;;;;;;;22.99;34.14;99625.63;10274436;28;20229;-69
2023/06/03 18:41:52;;;;;;;5.35;3.80;;;;;;;24.69;32.95;99552.25;10271676;28;20427;-69
2023/06/03 18:46:54;;;;;;;6.32;3.67;;;;;;;22.94;34.05;99636.56;10272221;28;20609;-69
2023/06/03 18:51:55;;;;;;;4.72;3.83;;;;;;;23.05;34.14;99641.75;10273370;28;20562;-69
2023/06/03 18:56:57;;;;;;;7.05;3.90;;;;;;;22.88;34.52;99669.28;10272321;28;20226;-68
2023/06/03 19:01:59;;;;;;;7.57;3.50;;;;;;;23.18;34.41;99645.06;10270228;28;20324;-68
2023/06/03 19:07:01;;;;;;;6.65;3.47;;;;;;;22.35;35.24;99698.53;10271540;28;20267;-69
2023/06/03 19:12:03;;;;;;;6.28;3.90;;;;;;;22.65;34.75;99664.31;10270834;28;20246;-71
2023/06/03 19:17:04;;;;;;;5.93;4.07;;;;;;;23.81;33.61;99629.19;10270965;28;20238;-69
2023/06/03 19:22:06;;;;;;;8.15;3.75;;;;;;;23.63;33.74;99644.25;10273857;28;20234;-71
2023/06/03 19:27:08;;;;;;;5.70;3.53;;;;;;;22.03;35.68;99724.00;10279514;28;20260;-71
2023/06/03 19:32:10;;;;;;;6.00;3.80;;;;;;;23.76;33.72;99633.84;10277076;28;20260;-72
2023/06/03 19:37:11;;;;;;;5.38;3.80;;;;;;;22.77;34.24;99691.34;10281002;28;20712;-71
2023/06/03 19:42:13;;;;;;;5.38;3.70;;;;;;;22.73;34.21;99712.88;10279375;28;20726;-69
2023/06/03 19:47:15;;;;;;;5.15;3.40;;;;;;;23.05;34.25;99679.94;10278438;28;20987;-70
2023/06/03 19:52:16;;;;;;;4.60;3.17;;;;;;;22.12;34.52;99721.59;10280595;28;20242;-69
2023/06/03 19:57:20;;;;;;;6.95;3.83;;;;;;;21.97;34.59;99733.19;10277963;28;20234;-70
2023/06/03 20:02:22;;;;;;;5.63;3.60;;;;;;;22.83;34.46;99718.38;10275655;28;20659;-69
2023/06/03 20:07:24;;;;;;;5.03;3.35;;;;;;;22.10;34.44;99753.69;10279647;28;20234;-69
2023/06/03 20:12:27;;;;;;;6.45;3.97;;;;;;;22.14;34.56;99755.66;10277121;28;20241;-71
2023/06/03 20:17:29;;;;;;;5.97;3.55;;;;;;;21.88;34.50;99737.44;10278509;28;20325;-68
2023/06/03 20:22:30;;;;;;;7.93;3.83;;;;;;;21.86;34.62;99772.31;10279238;28;20947;-69
2023/06/03 20:27:34;;;;;;;5.70;3.63;;;;;;;21.64;34.75;99781.38;10278521;28;20813;-72
2023/06/03 20:32:36;;;;;;;7.22;3.90;;;;;;;22.56;34.41;99732.19;10276946;28;20621;-71
2023/06/03 20:37:38;;;;;;;5.15;3.92;;;;;;;21.62;35.40;99782.72;10276920;28;20332;-69
2023/06/03 20:42:39;;;;;;;7.35;4.00;;;;;;;21.37;35.78;99776.78;10276788;28;20327;-66
2023/06/03 20:47:41;;;;;;;6.38;4.38;;;;;;;20.58;36.69;99807.06;10275025;28;21065;-70
2023/06/03 20:52:43;;;;;;;4.85;3.88;;;;;;;19.67;37.77;99789.06;10275641;28;20250;-69
2023/06/03 20:57:45;;;;;;;5.28;3.78;;;;;;;19.22;38.91;99795.28;10277089;28;20237;-69
2023/06/03 21:02:47;;;;;;;9.35;4.30;;;;;;;18.84;40.08;99814.59;10271893;28;20800;-69
2023/06/03 21:07:48;;;;;;;6.68;4.00;;;;;;;20.07;38.66;99774.50;10275859;28;20284;-69
2023/06/03 21:12:50;;;;;;;6.70;4.50;;;;;;;19.10;39.14;99836.81;10274729;28;20257;-70
2023/06/03 21:17:52;;;;;;;6.30;4.18;;;;;;;18.33;39.74;99826.16;10241283;28;20526;-69
2023/06/03 21:22:54;;;;;;;6.05;4.03;;;;;;;18.15;39.68;99837.88;10260450;28;20669;-65
2023/06/03 21:27:56;;;;;;;5.70;3.80;;;;;;;18.76;39.46;99833.06;10266959;28;21084;-66
2023/06/03 21:32:58;;;;;;;5.37;3.43;;;;;;;18.37;39.12;99847.13;10270391;28;20252;-64
2023/06/03 21:38:00;;;;;;;4.53;3.60;;;;;;;18.04;39.21;99866.59;10274493;28;20341;-66
2023/06/03 21:43:01;;;;;;;6.80;3.40;;;;;;;18.68;38.90;99838.88;10274061;28;20239;-66
2023/06/03 21:48:03;;;;;;;4.37;2.80;;;;;;;18.08;39.12;99868.63;10273994;28;20652;-64
2023/06/03 21:53:07;;;;;;;3.07;2.67;;;;;;;18.41;38.37;99851.00;10274256;28;20234;-66
2023/06/03 21:58:08;;;;;;;3.53;2.53;;;;;;;17.63;39.10;99877.19;10274597;28;20238;-65
2023/06/03 22:03:10;;;;;;;4.23;2.70;;;;;;;17.94;38.12;99893.41;10271167;28;20327;-64
2023/06/03 22:08:12;;;;;;;5.77;2.60;;;;;;;17.84;39.06;99886.66;10273840;28;20236;-65
2023/06/03 22:13:14;;;;;;;4.90;2.70;;;;;;;17.34;38.72;99893.16;10274207;28;20323;-64
2023/06/03 22:18:16;;;;;;;4.37;2.40;;;;;;;17.20;39.10;99886.22;10270638;28;20230;-66
2023/06/03 22:23:17;;;;;;;4.03;2.30;;;;;;;17.90;38.12;99866.00;10271006;28;20243;-65
2023/06/03 22:28:19;;;;;;;3.60;2.53;;;;;;;16.49;39.59;99882.97;10272953;28;20237;-66
2023/06/03 22:33:21;;;;;;;3.77;1.97;;;;;;;16.30;40.05;99881.25;10268884;28;20315;-66
2023/06/03 22:38:23;;;;;;;4.47;2.30;;;;;;;16.33;39.99;99878.13;10271703;28;22297;-65
2023/06/03 22:43:25;;;;;;;3.60;2.30;;;;;;;17.38;38.52;99873.72;10275538;28;20248;-66
2023/06/03 22:48:27;;;;;;;4.13;2.30;;;;;;;16.67;38.95;99892.16;10268954;28;20284;-64
2023/06/03 22:53:29;;;;;;;5.33;2.50;;;;;;;16.71;39.05;99896.91;10272772;28;20301;-65
2023/06/03 22:58:30;;;;;;;5.27;2.00;;;;;;;16.22;39.15;99895.84;10270973;28;20246;-66
2023/06/03 23:03:34;;;;;;;3.27;2.10;;;;;;;16.49;39.13;99884.88;10273878;28;20656;-64
2023/06/03 23:08:36;;;;;;;5.43;2.50;;;;;;;16.48;38.79;99894.81;10273498;28;20236;-63
2023/06/03 23:13:38;;;;;;;4.17;2.50;;;;;;;16.52;38.72;99893.34;10272165;28;20287;-64
2023/06/03 23:18:39;;;;;;;3.23;2.30;;;;;;;16.55;38.16;99906.41;10264929;28;20246;-66
2023/06/03 23:23:41;;;;;;;3.53;2.20;;;;;;;15.82;39.00;99896.09;10269232;28;20232;-66
2023/06/03 23:28:43;;;;;;;6.63;2.70;;;;;;;15.44;39.27;99886.94;10271006;28;20238;-65
2023/06/03 23:33:45;;;;;;;5.83;2.30;;;;;;;16.20;39.15;99887.97;10271118;28;20284;-66